Time;durP1;ratioP1;P1;durP2;ratioP2;P2;SDS_P1;SDS_P2;PMS_P1;PMS_P2;Temp;Humidity;BMP_temperature;BMP_pressure;BME280_temperature;BME280_humidity;BME280_pressure;Samples;Min_cycle;Max_cycle;Signal;HPM_P1;HPM_P2
2023/08/28 00:01:35;;;;;;;5.18;4.28;;;;;;;13.37;100.00;101019.84;5093272;28;20043;-54
2023/08/28 00:04:00;;;;;;;5.18;4.13;;;;;;;13.29;100.00;101016.66;5092192;28;20081;-54
2023/08/28 00:06:25;;;;;;;4.47;4.05;;;;;;;12.96;100.00;100959.84;5093076;28;20036;-53
2023/08/28 00:08:51;;;;;;;6.03;4.28;;;;;;;13.09;100.00;100963.75;5093039;28;20403;-53
2023/08/28 00:11:17;;;;;;;5.50;4.15;;;;;;;13.41;100.00;101010.88;5092089;28;20390;-53
2023/08/28 00:13:42;;;;;;;5.63;4.35;;;;;;;13.41;100.00;101007.38;5093007;28;20445;-53
2023/08/28 00:16:07;;;;;;;7.95;4.60;;;;;;;13.02;100.00;100953.47;5091807;28;20035;-53
2023/08/28 00:18:33;;;;;;;5.30;4.80;;;;;;;12.98;100.00;100961.53;5091084;28;20052;-51
2023/08/28 00:20:58;;;;;;;5.50;5.00;;;;;;;13.24;100.00;100996.63;5092640;28;20048;-60
2023/08/28 00:23:23;;;;;;;7.22;4.55;;;;;;;13.04;100.00;100965.69;5092829;28;20169;-52
2023/08/28 00:25:49;;;;;;;5.75;4.20;;;;;;;13.14;100.00;101001.41;5092549;28;20036;-53
2023/08/28 00:28:14;;;;;;;4.80;4.30;;;;;;;12.80;100.00;100959.59;5092969;28;20028;-50
2023/08/28 00:30:40;;;;;;;5.70;4.53;;;;;;;13.01;100.00;101000.19;5092845;28;20119;-53
2023/08/28 00:33:05;;;;;;;6.55;5.40;;;;;;;12.62;100.00;100939.19;5091992;28;20064;-54
2023/08/28 00:35:30;;;;;;;5.57;4.95;;;;;;;13.03;100.00;101006.25;5091446;28;20036;-55
2023/08/28 00:37:56;;;;;;;8.00;4.82;;;;;;;12.66;100.00;100958.44;5092559;28;20043;-58
2023/08/28 00:40:21;;;;;;;7.32;4.63;;;;;;;13.01;100.00;101046.88;5092395;28;20552;-55
2023/08/28 00:42:46;;;;;;;6.68;4.68;;;;;;;12.78;100.00;100993.13;5091167;28;20040;-54
2023/08/28 00:45:12;;;;;;;7.10;4.90;;;;;;;12.94;100.00;101033.91;5092650;28;20127;-53
2023/08/28 00:47:37;;;;;;;5.05;4.50;;;;;;;12.90;100.00;101034.91;5092470;28;20036;-54
2023/08/28 00:50:04;;;;;;;5.30;4.72;;;;;;;12.92;100.00;101033.09;5092441;28;20032;-56
2023/08/28 00:52:29;;;;;;;4.72;4.18;;;;;;;12.54;100.00;100965.03;5091568;28;20040;-55
2023/08/28 00:54:55;;;;;;;6.20;4.68;;;;;;;12.87;100.00;101016.53;5092113;28;20040;-55
2023/08/28 00:57:20;;;;;;;7.70;4.78;;;;;;;12.58;100.00;100973.72;5091227;28;20038;-52
2023/08/28 00:59:46;;;;;;;5.68;4.85;;;;;;;12.81;100.00;101014.13;5092388;28;20028;-54
2023/08/28 01:02:11;;;;;;;6.25;4.45;;;;;;;12.31;100.00;100934.25;5092295;28;20032;-54
2023/08/28 01:04:36;;;;;;;5.05;4.45;;;;;;;12.71;100.00;101002.22;5092310;28;20040;-56
2023/08/28 01:07:21;;;;;;;5.93;4.05;;;;;;;12.73;100.00;101007.44;5092172;28;20036;-56
2023/08/28 01:09:54;;;;;;;4.65;4.25;;;;;;;12.56;100.00;100984.31;5090990;28;20498;-52
2023/08/28 01:12:30;;;;;;;4.82;4.32;;;;;;;12.65;100.00;101009.50;5092320;28;20028;-55
2023/08/28 01:15:05;;;;;;;6.68;4.60;;;;;;;12.58;100.00;101013.31;5092006;28;20487;-53
2023/08/28 01:17:30;;;;;;;8.73;5.05;;;;;;;12.62;100.00;101014.91;5092060;28;20024;-53
2023/08/28 01:19:57;;;;;;;6.68;4.55;;;;;;;12.23;100.00;100940.75;5092229;28;20515;-55
2023/08/28 01:22:28;;;;;;;6.35;5.10;;;;;;;12.61;100.00;101011.41;5092087;28;20036;-56
2023/08/28 01:25:04;;;;;;;5.57;5.13;;;;;;;12.60;100.00;101016.75;5089709;28;20055;-53
2023/08/28 01:27:29;;;;;;;5.72;5.22;;;;;;;12.03;100.00;100925.63;5090800;28;20081;-53
2023/08/28 01:30:24;;;;;;;5.65;5.13;;;;;;;12.54;100.00;101007.28;5090266;28;20418;-54
2023/08/28 01:32:50;;;;;;;6.53;4.80;;;;;;;12.41;100.00;100998.09;5074534;28;20457;-51
2023/08/28 01:35:27;;;;;;;6.25;5.20;;;;;;;12.43;100.00;101000.69;5090823;28;20124;-50
2023/08/28 01:38:07;;;;;;;5.70;5.07;;;;;;;12.27;100.00;100979.28;5090951;28;20379;-49
2023/08/28 01:40:38;;;;;;;6.20;4.95;;;;;;;12.43;100.00;101010.31;5091584;28;20101;-52
2023/08/28 01:43:07;;;;;;;7.53;5.90;;;;;;;12.37;100.00;101007.91;5092134;28;20114;-55
2023/08/28 01:45:32;;;;;;;6.53;5.13;;;;;;;11.88;100.00;100917.44;5094369;28;20099;-55
2023/08/28 01:47:58;;;;;;;8.48;4.85;;;;;;;11.91;100.00;100922.59;5094637;28;20073;-58
2023/08/28 01:50:24;;;;;;;7.00;5.07;;;;;;;12.35;100.00;101006.25;5094720;28;20463;-55
2023/08/28 01:52:49;;;;;;;6.55;5.50;;;;;;;12.33;100.00;101001.03;5095735;28;20036;-55
2023/08/28 01:55:14;;;;;;;5.63;5.00;;;;;;;11.90;100.00;100921.72;5095402;28;20055;-54
2023/08/28 01:57:39;;;;;;;7.53;5.32;;;;;;;12.19;100.00;100984.84;5094408;28;20071;-54
2023/08/28 02:00:05;;;;;;;5.78;4.80;;;;;;;12.28;100.00;101002.13;5095898;28;20159;-56
2023/08/28 02:02:31;;;;;;;5.82;5.32;;;;;;;11.83;100.00;100934.28;5095453;28;20048;-51
2023/08/28 02:04:56;;;;;;;6.47;5.68;;;;;;;12.24;100.00;101005.78;5094216;28;20406;-55
2023/08/28 02:07:21;;;;;;;8.15;5.32;;;;;;;11.93;100.00;100953.28;5095206;28;20064;-53
2023/08/28 02:09:47;;;;;;;7.80;5.75;;;;;;;11.96;100.00;100957.56;5094899;28;20036;-50
2023/08/28 02:12:13;;;;;;;5.90;5.38;;;;;;;11.91;100.00;100962.16;5095262;28;20040;-54
2023/08/28 02:14:38;;;;;;;6.65;5.57;;;;;;;12.16;100.00;101007.84;5095507;28;20064;-53
2023/08/28 02:17:03;;;;;;;6.22;5.68;;;;;;;12.22;100.00;101019.03;5095206;28;20028;-53
2023/08/28 02:19:29;;;;;;;8.23;5.50;;;;;;;12.15;100.00;100999.06;5095348;28;20052;-53
2023/08/28 02:21:54;;;;;;;6.28;5.30;;;;;;;12.23;100.00;101022.56;5093045;28;20040;-53
2023/08/28 02:24:19;;;;;;;5.82;5.20;;;;;;;12.11;100.00;100994.78;5095114;28;20032;-54
2023/08/28 02:26:45;;;;;;;5.90;5.30;;;;;;;12.20;100.00;101012.09;5095268;28;20115;-53
2023/08/28 02:29:10;;;;;;;6.45;5.43;;;;;;;12.19;100.00;101005.97;5093937;28;20071;-53
2023/08/28 02:31:35;;;;;;;7.72;5.05;;;;;;;12.26;100.00;101009.22;5095415;28;20040;-51
2023/08/28 02:34:00;;;;;;;5.82;5.10;;;;;;;12.09;100.00;100974.66;5095023;28;20067;-50
2023/08/28 02:36:26;;;;;;;7.32;5.30;;;;;;;12.33;100.00;100990.47;5094733;28;20565;-55
2023/08/28 02:38:51;;;;;;;8.20;6.30;;;;;;;12.03;100.00;100906.28;5093682;28;20032;-53
2023/08/28 02:41:16;;;;;;;7.78;5.75;;;;;;;12.49;100.00;100966.16;5095305;28;20119;-53
2023/08/28 02:43:42;;;;;;;6.05;5.22;;;;;;;12.57;100.00;100972.84;5093502;28;20028;-51
2023/08/28 02:46:07;;;;;;;6.93;5.47;;;;;;;12.49;100.00;100950.31;5094851;28;20024;-52
2023/08/28 02:48:33;;;;;;;9.75;5.82;;;;;;;12.17;100.00;100904.03;5094795;28;20374;-49
2023/08/28 02:50:58;;;;;;;7.13;6.43;;;;;;;12.61;100.00;100978.88;5094732;28;20506;-53
2023/08/28 02:53:23;;;;;;;6.07;5.03;;;;;;;12.65;100.00;100980.47;5094469;28;20494;-53
2023/08/28 02:56:17;;;;;;;6.40;5.07;;;;;;;12.70;100.00;100982.00;5091323;28;20123;-57
2023/08/28 02:58:42;;;;;;;6.55;5.95;;;;;;;12.69;100.00;100972.38;5094579;28;20036;-50
2023/08/28 03:01:07;;;;;;;5.95;5.45;;;;;;;12.32;100.00;100901.63;5092046;28;20154;-52
2023/08/28 03:03:33;;;;;;;6.05;5.45;;;;;;;12.71;100.00;100962.59;5094211;28;20097;-55
2023/08/28 03:05:59;;;;;;;5.20;4.70;;;;;;;12.28;100.00;100889.50;5094290;28;20039;-57
2023/08/28 03:08:25;;;;;;;6.07;4.30;;;;;;;12.68;100.00;100957.44;5094409;28;20036;-55
2023/08/28 03:10:51;;;;;;;5.95;5.20;;;;;;;12.69;100.00;100948.63;5094313;28;20059;-54
2023/08/28 03:13:17;;;;;;;5.90;5.13;;;;;;;12.40;100.00;100910.13;5093326;28;20450;-53
2023/08/28 03:15:42;;;;;;;5.40;4.90;;;;;;;12.71;100.00;100954.69;5094075;28;20128;-53
2023/08/28 03:18:08;;;;;;;8.20;5.38;;;;;;;12.35;100.00;100890.09;5092605;28;20124;-54
2023/08/28 03:20:33;;;;;;;6.20;5.38;;;;;;;12.34;100.00;100881.34;5093746;28;20119;-56
2023/08/28 03:22:58;;;;;;;5.68;5.13;;;;;;;12.88;100.00;100965.44;5094206;28;20036;-53
2023/08/28 03:25:24;;;;;;;6.43;5.55;;;;;;;12.97;100.00;100986.22;5094078;28;20093;-54
2023/08/28 03:27:49;;;;;;;9.27;5.55;;;;;;;12.78;100.00;100950.88;5094068;28;20024;-54
2023/08/28 03:30:14;;;;;;;6.68;4.85;;;;;;;12.70;100.00;100930.97;5093669;28;20044;-58
2023/08/28 03:32:40;;;;;;;8.77;4.88;;;;;;;12.98;100.00;100973.88;5093862;28;20487;-53
2023/08/28 03:35:06;;;;;;;6.05;4.75;;;;;;;12.67;100.00;100929.31;5092531;28;20406;-55
2023/08/28 03:37:31;;;;;;;5.60;5.10;;;;;;;13.10;100.00;100989.28;5092755;28;20020;-56
2023/08/28 03:39:56;;;;;;;5.10;4.40;;;;;;;13.12;100.00;101003.28;5093733;28;20482;-58
2023/08/28 03:42:22;;;;;;;7.80;4.97;;;;;;;13.17;100.00;100998.66;5094003;28;20032;-53
2023/08/28 03:44:47;;;;;;;8.55;4.90;;;;;;;13.07;100.00;100986.72;5094139;28;20036;-55
2023/08/28 03:47:13;;;;;;;5.38;4.93;;;;;;;13.19;100.00;101003.91;5093635;28;20036;-52
2023/08/28 03:49:38;;;;;;;8.02;5.78;;;;;;;12.89;100.00;100959.25;5092198;28;20212;-52
2023/08/28 03:52:04;;;;;;;5.57;5.05;;;;;;;13.16;100.00;101004.03;5092541;28;20036;-51
2023/08/28 03:54:29;;;;;;;5.55;5.03;;;;;;;13.20;100.00;101017.03;5093588;28;20024;-53
2023/08/28 03:56:54;;;;;;;5.60;5.10;;;;;;;13.06;100.00;101021.13;5092306;28;20060;-51
2023/08/28 03:59:21;;;;;;;6.32;5.47;;;;;;;12.98;100.00;101009.09;5092339;28;20082;-53
2023/08/28 04:01:47;;;;;;;7.65;5.57;;;;;;;12.96;100.00;101005.63;5093539;28;20197;-53
2023/08/28 04:04:12;;;;;;;8.45;6.00;;;;;;;12.93;100.00;101012.81;5093233;28;20027;-57
2023/08/28 04:06:37;;;;;;;6.15;5.50;;;;;;;12.85;100.00;101026.31;5091607;28;20128;-53
2023/08/28 04:09:03;;;;;;;7.65;5.35;;;;;;;12.35;100.00;100948.16;5091329;28;20476;-53
2023/08/28 04:11:28;;;;;;;6.07;5.47;;;;;;;12.29;100.00;100954.53;5093034;28;20036;-53
2023/08/28 04:13:53;;;;;;;6.78;6.13;;;;;;;12.73;100.00;101026.78;5093126;28;20036;-52
2023/08/28 04:16:18;;;;;;;8.45;6.38;;;;;;;12.33;100.00;100974.63;5092840;28;20040;-55
2023/08/28 04:18:44;;;;;;;7.35;6.28;;;;;;;12.27;100.00;100976.63;5092737;28;20085;-55
2023/08/28 04:21:10;;;;;;;6.65;5.95;;;;;;;12.55;100.00;101024.84;5092949;28;20085;-55
2023/08/28 04:23:35;;;;;;;10.60;7.03;;;;;;;12.61;100.00;101031.69;5091463;28;20494;-54
2023/08/28 04:26:00;;;;;;;6.72;6.05;;;;;;;12.64;100.00;101036.88;5092710;28;20038;-54
2023/08/28 04:28:27;;;;;;;7.00;6.40;;;;;;;12.54;100.00;101046.91;5092984;28;20040;-53
2023/08/28 04:30:53;;;;;;;7.50;6.68;;;;;;;12.49;100.00;101051.50;5091978;28;20027;-53
2023/08/28 04:33:19;;;;;;;11.23;6.93;;;;;;;12.14;100.00;100986.78;5092747;28;20394;-55
2023/08/28 04:35:44;;;;;;;8.32;7.47;;;;;;;12.13;100.00;100979.78;5091251;28;20061;-54
2023/08/28 04:38:09;;;;;;;8.52;7.20;;;;;;;12.59;100.00;101059.91;5092806;28;20373;-56
2023/08/28 04:40:34;;;;;;;8.13;7.40;;;;;;;12.21;100.00;100983.00;5089950;28;20032;-53
2023/08/28 04:43:00;;;;;;;7.55;6.85;;;;;;;12.35;100.00;101006.25;5092586;28;20036;-52
2023/08/28 04:45:25;;;;;;;8.68;7.43;;;;;;;12.35;100.00;100985.13;5092329;28;20032;-54
2023/08/28 04:47:51;;;;;;;8.80;8.00;;;;;;;12.81;100.00;101059.03;5092428;28;20395;-55
2023/08/28 04:50:16;;;;;;;11.10;7.85;;;;;;;12.87;100.00;101064.09;5092468;28;20048;-54
2023/08/28 04:52:41;;;;;;;8.82;8.02;;;;;;;12.51;100.00;100994.22;5092570;28;20435;-51
2023/08/28 04:55:07;;;;;;;10.63;8.07;;;;;;;12.69;100.00;101001.44;5092540;28;20036;-53
2023/08/28 04:57:32;;;;;;;10.32;9.20;;;;;;;12.40;100.00;100991.94;5091406;28;20024;-51
2023/08/28 04:59:58;;;;;;;11.50;9.38;;;;;;;12.77;100.00;101017.84;5092161;28;20036;-56
2023/08/28 05:02:23;;;;;;;21.70;11.93;;;;;;;13.20;100.00;101085.75;5092172;28;20032;-50
2023/08/28 05:04:48;;;;;;;15.23;9.50;;;;;;;13.29;100.00;101085.41;5091955;28;20043;-52
2023/08/28 05:07:14;;;;;;;11.82;6.60;;;;;;;13.06;100.00;101029.03;5092318;28;20154;-57
2023/08/28 05:09:39;;;;;;;9.40;7.38;;;;;;;13.48;100.00;101085.53;5092226;28;20061;-55
2023/08/28 05:12:05;;;;;;;7.13;5.20;;;;;;;13.60;100.00;101095.59;5091961;28;20391;-55
2023/08/28 05:14:30;;;;;;;9.82;5.78;;;;;;;13.68;100.00;101093.53;5090820;28;20390;-52
2023/08/28 05:16:55;;;;;;;11.13;6.35;;;;;;;13.76;100.00;101103.78;5091701;28;20379;-55
2023/08/28 05:19:21;;;;;;;10.73;5.68;;;;;;;13.79;100.00;101099.22;5090161;28;20155;-53
2023/08/28 05:21:46;;;;;;;8.80;5.45;;;;;;;13.91;100.00;101096.06;5090614;28;20483;-53
2023/08/28 05:24:11;;;;;;;9.32;6.25;;;;;;;13.93;100.00;101093.34;5091983;28;20070;-55
2023/08/28 05:26:37;;;;;;;6.88;5.55;;;;;;;13.62;100.00;101019.72;5091994;28;20039;-57
2023/08/28 05:29:02;;;;;;;8.13;6.45;;;;;;;13.84;100.00;101057.56;5090480;28;20040;-52
2023/08/28 05:31:27;;;;;;;8.70;6.35;;;;;;;14.00;100.00;101089.53;5090671;28;20035;-52
2023/08/28 05:33:53;;;;;;;11.00;8.02;;;;;;;13.73;100.00;101032.47;5091688;28;20060;-53
2023/08/28 05:36:18;;;;;;;9.90;7.47;;;;;;;13.94;100.00;101069.47;5091622;28;20032;-58
2023/08/28 05:38:43;;;;;;;9.57;7.22;;;;;;;13.68;100.00;101016.81;5090591;28;20036;-49
2023/08/28 05:41:09;;;;;;;15.13;7.35;;;;;;;14.04;100.00;101078.72;5091456;28;20093;-52
2023/08/28 05:43:34;;;;;;;10.52;6.50;;;;;;;13.71;100.00;101014.03;5091322;28;20555;-50
2023/08/28 05:45:59;;;;;;;7.68;6.88;;;;;;;13.68;100.00;101018.59;5091359;28;20115;-49
2023/08/28 05:48:25;;;;;;;11.70;9.45;;;;;;;13.69;100.00;101015.88;5088905;28;20120;-50
2023/08/28 05:50:50;;;;;;;9.32;7.97;;;;;;;13.75;100.00;101012.97;5091504;28;20085;-56
2023/08/28 05:53:16;;;;;;;8.70;7.85;;;;;;;14.16;100.00;101071.19;5091493;28;20391;-51
2023/08/28 05:55:41;;;;;;;12.88;8.32;;;;;;;14.00;100.00;101042.75;5091360;28;20028;-52
2023/08/28 05:58:06;;;;;;;9.32;8.05;;;;;;;14.15;100.00;101053.59;5091243;28;20471;-50
2023/08/28 06:00:32;;;;;;;10.73;8.05;;;;;;;14.26;100.00;101048.69;5090779;28;20043;-57
2023/08/28 06:02:57;;;;;;;11.02;8.18;;;;;;;14.34;100.00;101079.22;5090931;28;20044;-56
2023/08/28 06:05:22;;;;;;;9.73;7.90;;;;;;;14.41;100.00;101064.81;5089839;28;20036;-51
2023/08/28 06:07:48;;;;;;;13.05;8.77;;;;;;;14.47;100.00;101058.38;5091377;28;20055;-49
2023/08/28 06:10:17;;;;;;;10.10;8.40;;;;;;;14.53;100.00;101066.91;5090888;28;20168;-49
2023/08/28 06:12:44;;;;;;;13.32;9.00;;;;;;;14.17;100.00;101004.09;5091005;28;20127;-53
2023/08/28 06:15:10;;;;;;;9.48;8.52;;;;;;;14.22;100.00;101005.59;5090901;28;20039;-54
2023/08/28 06:17:36;;;;;;;11.43;9.00;;;;;;;14.70;100.00;101070.56;5090857;28;20028;-50
2023/08/28 06:20:01;;;;;;;9.95;8.75;;;;;;;14.75;100.00;101073.88;5090844;28;20044;-51
2023/08/28 06:22:26;;;;;;;13.90;10.15;;;;;;;14.70;100.00;101059.97;5090491;28;20047;-56
2023/08/28 06:24:52;;;;;;;12.63;10.68;;;;;;;14.86;100.00;101069.78;5089976;28;20081;-53
2023/08/28 06:27:18;;;;;;;10.88;9.85;;;;;;;14.98;100.00;101066.56;5091267;28;20032;-49
2023/08/28 06:29:43;;;;;;;9.43;8.50;;;;;;;14.62;100.00;101017.94;5090776;28;20115;-55
2023/08/28 06:32:08;;;;;;;12.25;9.32;;;;;;;14.94;100.00;101072.09;5092406;28;20107;-49
2023/08/28 06:34:34;;;;;;;13.02;8.88;;;;;;;14.91;100.00;101073.09;5094580;28;20036;-56
2023/08/28 06:36:59;;;;;;;13.98;10.00;;;;;;;14.42;100.00;100989.69;5094835;28;20036;-55
2023/08/28 06:39:24;;;;;;;11.57;9.18;;;;;;;14.49;100.00;101006.19;5092277;28;20094;-54
2023/08/28 06:41:50;;;;;;;13.20;9.95;;;;;;;14.57;100.00;101009.31;5094951;28;20039;-50
2023/08/28 06:44:15;;;;;;;10.82;9.57;;;;;;;14.64;100.00;101006.34;5094677;28;20039;-50
2023/08/28 06:46:40;;;;;;;11.45;9.35;;;;;;;15.09;100.00;101058.13;5094403;28;20364;-52
2023/08/28 06:49:06;;;;;;;10.23;9.00;;;;;;;14.86;100.00;101013.25;5094451;28;20490;-52
2023/08/28 06:51:31;;;;;;;12.70;11.18;;;;;;;15.54;100.00;101073.63;5093117;28;20407;-48
2023/08/28 06:53:57;;;;;;;12.75;10.10;;;;;;;15.78;100.00;101072.44;5093063;28;20036;-57
2023/08/28 06:56:22;;;;;;;10.60;9.50;;;;;;;15.66;100.00;101022.63;5091912;28;20039;-50
2023/08/28 06:58:48;;;;;;;11.18;9.68;;;;;;;16.12;100.00;101082.19;5094466;28;20044;-50
2023/08/28 07:01:13;;;;;;;9.60;8.65;;;;;;;16.30;100.00;101087.41;5093760;28;20093;-56
2023/08/28 07:03:38;;;;;;;9.85;8.95;;;;;;;16.37;100.00;101065.84;5093762;28;20118;-54
2023/08/28 07:06:04;;;;;;;9.07;8.20;;;;;;;16.26;100.00;101021.22;5094517;28;20032;-57
2023/08/28 07:08:29;;;;;;;8.85;7.95;;;;;;;16.74;100.00;101087.75;5094724;28;20066;-57
2023/08/28 07:10:54;;;;;;;9.00;8.10;;;;;;;16.52;100.00;101022.53;5092844;28;20069;-49
2023/08/28 07:13:20;;;;;;;7.88;7.18;;;;;;;17.17;100.00;101090.72;5094339;28;20043;-55
2023/08/28 07:15:45;;;;;;;6.63;6.03;;;;;;;17.46;100.00;101073.97;5094104;28;20123;-50
2023/08/28 07:18:10;;;;;;;4.07;3.67;;;;;;;17.66;100.00;101076.38;5093787;28;20031;-57
2023/08/28 07:20:36;;;;;;;4.05;3.35;;;;;;;17.62;100.00;101026.06;5091473;28;20060;-50
2023/08/28 07:23:01;;;;;;;5.03;3.72;;;;;;;18.23;100.00;101065.91;5091762;28;20040;-57
2023/08/28 07:25:27;;;;;;;4.72;2.88;;;;;;;18.37;100.00;101032.13;5092114;28;20104;-52
2023/08/28 07:27:53;;;;;;;3.97;1.90;;;;;;;18.84;100.00;101052.34;5090911;28;20123;-56
2023/08/28 07:30:19;;;;;;;1.48;1.30;;;;;;;19.25;100.00;101077.25;5090617;28;20475;-54
2023/08/28 07:32:44;;;;;;;3.75;1.42;;;;;;;19.50;100.00;101077.38;5091625;28;20096;-54
2023/08/28 07:35:10;;;;;;;2.00;1.13;;;;;;;19.89;100.00;101094.41;5091819;28;20035;-53
2023/08/28 07:37:36;;;;;;;0.90;0.80;;;;;;;19.54;100.00;101129.63;5091487;28;20028;-55
2023/08/28 07:40:06;;;;;;;2.72;0.88;;;;;;;19.57;100.00;101069.84;5091659;28;20036;-50
2023/08/28 07:42:34;;;;;;;2.30;1.00;;;;;;;20.36;100.00;101123.28;5091265;28;20043;-55
2023/08/28 07:44:59;;;;;;;3.97;1.35;;;;;;;20.81;100.00;101140.66;5090133;28;20166;-57
2023/08/28 07:47:28;;;;;;;2.45;1.00;;;;;;;20.73;100.00;101142.03;5090770;28;20127;-57
2023/08/28 07:49:54;;;;;;;1.85;0.95;;;;;;;20.33;100.00;101089.59;5090949;28;20403;-53
2023/08/28 07:52:19;;;;;;;2.67;0.95;;;;;;;20.08;100.00;101086.88;5090432;28;20039;-55
2023/08/28 07:54:44;;;;;;;3.92;0.90;;;;;;;19.87;100.00;101144.41;5090524;28;20066;-54
2023/08/28 07:57:10;;;;;;;2.28;0.90;;;;;;;19.62;100.00;101103.28;5090549;28;20036;-55
2023/08/28 07:59:36;;;;;;;1.33;1.10;;;;;;;19.15;100.00;101068.09;5090024;28;20036;-55
2023/08/28 08:02:01;;;;;;;2.03;1.00;;;;;;;19.08;100.00;101131.69;5089424;28;20467;-54
2023/08/28 08:04:26;;;;;;;2.58;0.90;;;;;;;19.04;100.00;101129.31;5090949;28;20044;-58
2023/08/28 08:06:52;;;;;;;3.40;0.93;;;;;;;18.88;100.00;101121.41;5091162;28;20092;-55
2023/08/28 08:09:18;;;;;;;3.22;1.23;;;;;;;18.52;100.00;101073.88;5090303;28;20057;-56
2023/08/28 08:11:43;;;;;;;1.50;0.80;;;;;;;18.63;100.00;101144.34;5089633;28;20061;-54
2023/08/28 08:14:09;;;;;;;3.90;1.00;;;;;;;18.57;100.00;101142.91;5090904;28;20036;-53
2023/08/28 08:16:34;;;;;;;1.10;0.80;;;;;;;18.51;100.00;101125.47;5090736;28;20498;-57
2023/08/28 08:18:59;;;;;;;2.60;0.80;;;;;;;18.09;100.00;101058.75;5089274;28;20040;-53
2023/08/28 08:21:25;;;;;;;1.70;0.80;;;;;;;18.35;100.00;101119.34;5089825;28;20040;-54
2023/08/28 08:23:50;;;;;;;2.00;0.80;;;;;;;18.21;100.00;101097.97;5089536;28;20067;-52
2023/08/28 08:26:15;;;;;;;1.13;0.90;;;;;;;18.54;100.00;101141.28;5090020;28;20399;-55
2023/08/28 08:28:41;;;;;;;1.90;0.98;;;;;;;18.84;100.00;101132.34;5089612;28;20040;-58
2023/08/28 08:31:06;;;;;;;1.10;1.00;;;;;;;19.30;100.00;101138.31;5089145;28;20065;-55
2023/08/28 08:33:32;;;;;;;1.27;0.50;;;;;;;19.78;100.00;101135.19;5089259;28;20044;-56
2023/08/28 08:35:57;;;;;;;0.55;0.55;;;;;;;20.33;100.00;101129.72;5089873;28;20044;-58
2023/08/28 08:38:22;;;;;;;1.27;0.90;;;;;;;20.54;100.00;101154.13;5090173;28;20399;-55
2023/08/28 08:40:52;;;;;;;4.53;0.88;;;;;;;20.57;100.00;101089.72;5090149;28;20074;-55
2023/08/28 08:43:17;;;;;;;3.05;1.15;;;;;;;21.15;100.00;101129.31;5088770;28;20032;-54
2023/08/28 08:45:44;;;;;;;8.40;0.90;;;;;;;21.96;100.00;101165.28;5070544;28;20038;-59
2023/08/28 08:48:15;;;;;;;1.20;0.80;;;;;;;22.46;100.00;101171.34;5088526;28;20074;-54
2023/08/28 08:50:41;;;;;;;2.63;0.55;;;;;;;23.01;100.00;101163.41;5088749;28;20032;-52
2023/08/28 08:53:21;;;;;;;0.70;0.52;;;;;;;23.78;100.00;101180.50;5088754;28;20126;-57
2023/08/28 08:55:47;;;;;;;0.95;0.70;;;;;;;23.92;100.00;101194.50;5088992;28;20570;-60
2023/08/28 08:58:16;;;;;;;1.17;0.40;;;;;;;23.76;100.00;101136.75;5088457;28;20131;-54
2023/08/28 09:00:45;;;;;;;1.10;0.68;;;;;;;24.05;100.00;101181.75;5085469;28;20105;-51
2023/08/28 09:03:11;;;;;;;0.70;0.60;;;;;;;24.42;100.00;101184.06;5089551;28;20046;-54
2023/08/28 09:05:36;;;;;;;0.65;0.52;;;;;;;24.54;100.00;101172.28;5087574;28;20040;-52
2023/08/28 09:08:05;;;;;;;1.13;0.60;;;;;;;24.65;100.00;101193.75;5089012;28;20064;-55
2023/08/28 09:10:31;;;;;;;1.45;0.63;;;;;;;24.24;100.00;101164.09;5088067;28;20044;-55
2023/08/28 09:12:56;;;;;;;1.35;0.70;;;;;;;23.91;100.00;101149.78;5088859;28;20115;-54
2023/08/28 09:15:21;;;;;;;3.65;0.98;;;;;;;24.57;100.00;101175.56;5089984;28;20115;-56
2023/08/28 09:17:47;;;;;;;1.35;0.90;;;;;;;24.48;100.00;101124.34;5088944;28;20062;-55
2023/08/28 09:20:21;;;;;;;1.55;0.70;;;;;;;25.01;100.00;101187.91;5089253;28;20546;-52
2023/08/28 09:22:51;;;;;;;2.92;0.77;;;;;;;25.50;100.00;101145.88;5089717;28;20097;-52
2023/08/28 09:25:18;;;;;;;1.75;0.70;;;;;;;26.48;100.00;101201.50;5067774;28;20097;-55
2023/08/28 09:27:45;;;;;;;1.50;0.70;;;;;;;26.19;100.00;101136.75;5068253;28;20043;-58
2023/08/28 09:30:27;;;;;;;1.42;0.70;;;;;;;25.04;100.00;101195.69;5068122;28;20040;-55
2023/08/28 09:32:52;;;;;;;0.82;0.70;;;;;;;23.08;100.00;101135.13;5069713;28;20032;-53
2023/08/28 09:35:21;;;;;;;3.33;1.00;;;;;;;22.06;100.00;101123.44;5051155;28;20041;-57
2023/08/28 09:38:00;;;;;;;3.40;0.93;;;;;;;21.42;100.00;101163.97;5069575;28;20081;-54
2023/08/28 09:40:30;;;;;;;1.23;0.70;;;;;;;20.69;100.00;101156.59;5082344;28;20032;-58
2023/08/28 09:42:57;;;;;;;2.28;1.25;;;;;;;20.14;100.00;101171.97;5089203;28;20036;-54
2023/08/28 09:45:22;;;;;;;1.88;0.82;;;;;;;19.85;100.00;101163.19;5088198;28;20451;-53
2023/08/28 09:47:53;;;;;;;2.00;0.90;;;;;;;19.63;100.00;101155.75;5088923;28;20071;-55
2023/08/28 09:50:29;;;;;;;2.95;0.65;;;;;;;19.46;100.00;101164.00;5070261;28;20075;-53
2023/08/28 09:52:54;;;;;;;1.88;1.15;;;;;;;19.38;100.00;101168.91;5089146;28;20031;-55
2023/08/28 09:55:20;;;;;;;1.88;1.00;;;;;;;19.69;100.00;101165.19;5088631;28;20106;-55
2023/08/28 09:57:45;;;;;;;1.77;0.60;;;;;;;20.87;100.00;101164.31;5087765;28;20032;-53
2023/08/28 10:00:12;;;;;;;2.42;1.20;;;;;;;22.54;100.00;101174.28;5089412;28;20051;-54
2023/08/28 10:02:38;;;;;;;6.85;0.90;;;;;;;23.40;100.00;101138.78;5088292;28;20497;-52
2023/08/28 10:05:05;;;;;;;0.88;0.40;;;;;;;24.85;100.00;101139.06;5090513;28;20383;-52
2023/08/28 10:07:32;;;;;;;2.35;0.77;;;;;;;25.67;100.00;101161.38;5092469;28;20546;-52
2023/08/28 10:09:59;;;;;;;0.65;0.40;;;;;;;25.53;100.00;101153.69;5091723;28;20044;-59
2023/08/28 10:12:25;;;;;;;1.63;0.75;;;;;;;24.57;100.00;101201.63;5090745;28;20459;-55
2023/08/28 10:14:51;;;;;;;1.23;0.60;;;;;;;23.40;100.00;101194.34;5093612;28;20036;-57
2023/08/28 10:17:17;;;;;;;1.13;0.50;;;;;;;21.96;100.00;101140.31;5091832;28;20032;-59
2023/08/28 10:19:47;;;;;;;1.58;0.75;;;;;;;21.43;100.00;101114.75;5074593;28;20411;-53
2023/08/28 10:22:12;;;;;;;2.25;0.63;;;;;;;21.22;100.00;101176.06;5091564;28;20475;-55
2023/08/28 10:24:42;;;;;;;0.98;0.68;;;;;;;20.89;100.00;101163.25;5091005;28;20042;-56
2023/08/28 10:27:07;;;;;;;1.38;0.60;;;;;;;20.02;100.00;101049.88;5093018;28;20051;-54
2023/08/28 10:29:34;;;;;;;0.47;0.45;;;;;;;21.03;100.00;101131.00;5091733;28;20036;-54
2023/08/28 10:31:59;;;;;;;3.30;1.00;;;;;;;21.86;100.00;101106.13;5091751;28;20032;-54
2023/08/28 10:34:25;;;;;;;2.20;1.13;;;;;;;22.67;100.00;101118.75;5092530;28;20383;-54
2023/08/28 10:36:51;;;;;;;1.95;0.80;;;;;;;23.31;100.00;101197.72;5090927;28;20456;-54
2023/08/28 10:39:17;;;;;;;1.92;0.63;;;;;;;23.74;100.00;101142.25;5091293;28;20111;-57
2023/08/28 10:41:43;;;;;;;0.70;0.57;;;;;;;24.77;100.00;101186.44;5092756;28;20050;-50
2023/08/28 10:44:09;;;;;;;3.13;0.70;;;;;;;25.32;100.00;101215.69;5092543;28;20040;-58
2023/08/28 10:46:34;;;;;;;1.48;0.70;;;;;;;25.27;100.00;101115.56;5091920;28;20101;-56
2023/08/28 10:49:03;;;;;;;2.10;0.52;;;;;;;26.46;100.00;101221.53;5089667;28;20518;-54
2023/08/28 10:51:31;;;;;;;1.40;0.60;;;;;;;26.62;100.00;101224.53;5090897;28;20391;-57
2023/08/28 10:54:19;;;;;;;0.80;0.50;;;;;;;27.47;100.00;101186.66;5091643;28;20032;-56
2023/08/28 10:56:53;;;;;;;4.22;0.47;;;;;;;27.21;100.00;101237.81;5090514;28;20055;-56
2023/08/28 10:59:25;;;;;;;1.02;0.70;;;;;;;26.13;100.00;101223.63;5090846;28;20032;-56
2023/08/28 11:01:56;;;;;;;1.95;0.40;;;;;;;24.77;100.00;101222.31;5091172;28;20074;-53
2023/08/28 11:04:22;;;;;;;;;;;;;;;24.05;100.00;101213.19;5091844;28;20024;-58
2023/08/28 11:06:47;;;;;;;1.20;0.70;;;;;;;24.01;100.00;101166.00;5091997;28;19924;-54
2023/08/28 11:09:28;;;;;;;2.17;0.43;;;;;;;25.23;100.00;101229.13;5090533;28;20047;-54
2023/08/28 11:11:59;;;;;;;2.80;2.50;;;;;;;25.81;100.00;101231.09;5091491;28;20035;-53
2023/08/28 11:14:39;;;;;;;2.05;1.45;;;;;;;24.89;100.00;101221.28;5091735;28;20051;-54